K9MN

Rochester

Rochester, Minnesota, USA
METAR K9MN 092115Z AUTO 17007KT 10SM CLR M03/M07 A3029 RMK AO1 T10281072
Observed Flight Rules
Dec-9 @ 21:15 UTC (25 minutes ago) Visual Flight Rules
Wind Visibility Clouds
170° at 7 knots 10 miles
  • Clear skies
Temperatures Readings
Current -3°C / 27°F
Dewpoint -7°C / 19°F
Humidity 74%
Altimeter 30.29" Hg
Pressure 1026 hPa
Elevation 355
METAR K9MN 092115Z AUTO 17007KT 10SM CLR M03/M07 A3029 RMK AO1 T10281072
Observed Flight Rules
Dec-9 @ 21:15 UTC
(25 minutes ago)
VFR
Wind Visibility
170° at 7 knots 10 miles
Clouds
  • Clear skies
Temperature Dewpoint
-3°C / 27°F -7°C / 19°F
Humidity Altimeter Pressure
74% 30.29" Hg 1026 hPa